sensor_id;sensor_type;location;lat;lon;timestamp;temperature;humidity
42097;DHT22;27754;45.414;11.084;2023-03-17T00:01:50;6.40;67.30
42097;DHT22;27754;45.414;11.084;2023-03-17T00:04:21;6.40;67.60
42097;DHT22;27754;45.414;11.084;2023-03-17T00:06:50;6.40;67.80
42097;DHT22;27754;45.414;11.084;2023-03-17T00:09:19;6.50;68.00
42097;DHT22;27754;45.414;11.084;2023-03-17T00:11:46;6.50;68.20
42097;DHT22;27754;45.414;11.084;2023-03-17T00:14:13;6.50;68.40
42097;DHT22;27754;45.414;11.084;2023-03-17T00:16:43;6.60;66.70
42097;DHT22;27754;45.414;11.084;2023-03-17T00:19:14;6.60;66.80
42097;DHT22;27754;45.414;11.084;2023-03-17T00:21:43;6.50;66.90
42097;DHT22;27754;45.414;11.084;2023-03-17T00:24:11;6.40;67.00
42097;DHT22;27754;45.414;11.084;2023-03-17T00:26:41;6.40;67.00
42097;DHT22;27754;45.414;11.084;2023-03-17T00:29:09;6.40;67.20
42097;DHT22;27754;45.414;11.084;2023-03-17T00:31:36;6.40;67.50
42097;DHT22;27754;45.414;11.084;2023-03-17T00:34:05;6.40;67.80
42097;DHT22;27754;45.414;11.084;2023-03-17T00:36:32;6.30;67.80
42097;DHT22;27754;45.414;11.084;2023-03-17T00:39:02;6.20;68.40
42097;DHT22;27754;45.414;11.084;2023-03-17T00:41:29;6.20;69.10
42097;DHT22;27754;45.414;11.084;2023-03-17T00:43:56;6.00;70.10
42097;DHT22;27754;45.414;11.084;2023-03-17T00:46:30;5.90;70.20
42097;DHT22;27754;45.414;11.084;2023-03-17T00:49:09;6.00;70.70
42097;DHT22;27754;45.414;11.084;2023-03-17T00:51:39;6.00;70.50
42097;DHT22;27754;45.414;11.084;2023-03-17T00:54:07;5.90;69.70
42097;DHT22;27754;45.414;11.084;2023-03-17T00:56:35;5.90;69.50
42097;DHT22;27754;45.414;11.084;2023-03-17T00:59:03;5.90;69.40
42097;DHT22;27754;45.414;11.084;2023-03-17T01:01:31;5.80;69.10
42097;DHT22;27754;45.414;11.084;2023-03-17T01:03:58;5.90;68.40
42097;DHT22;27754;45.414;11.084;2023-03-17T01:06:25;5.90;67.90
42097;DHT22;27754;45.414;11.084;2023-03-17T01:08:54;5.90;67.80
42097;DHT22;27754;45.414;11.084;2023-03-17T01:11:23;6.00;67.50
42097;DHT22;27754;45.414;11.084;2023-03-17T01:13:50;6.00;67.70
42097;DHT22;27754;45.414;11.084;2023-03-17T01:16:17;6.00;67.60
42097;DHT22;27754;45.414;11.084;2023-03-17T01:18:44;5.90;68.20
42097;DHT22;27754;45.414;11.084;2023-03-17T01:21:11;6.00;68.40
42097;DHT22;27754;45.414;11.084;2023-03-17T01:23:38;5.90;68.50
42097;DHT22;27754;45.414;11.084;2023-03-17T01:26:05;5.90;68.90
42097;DHT22;27754;45.414;11.084;2023-03-17T01:28:32;5.80;69.20
42097;DHT22;27754;45.414;11.084;2023-03-17T01:30:59;5.80;69.30
42097;DHT22;27754;45.414;11.084;2023-03-17T01:33:28;5.70;69.70
42097;DHT22;27754;45.414;11.084;2023-03-17T01:35:55;5.70;70.10
42097;DHT22;27754;45.414;11.084;2023-03-17T01:38:22;5.70;70.30
42097;DHT22;27754;45.414;11.084;2023-03-17T01:40:50;5.60;70.50
42097;DHT22;27754;45.414;11.084;2023-03-17T01:43:23;5.70;70.00
42097;DHT22;27754;45.414;11.084;2023-03-17T01:51:19;5.80;68.70
42097;DHT22;27754;45.414;11.084;2023-03-17T01:53:47;5.70;69.00
42097;DHT22;27754;45.414;11.084;2023-03-17T01:56:17;5.70;68.90
42097;DHT22;27754;45.414;11.084;2023-03-17T01:58:46;5.70;69.30
42097;DHT22;27754;45.414;11.084;2023-03-17T02:01:15;5.60;69.90
42097;DHT22;27754;45.414;11.084;2023-03-17T02:03:43;5.60;70.20
42097;DHT22;27754;45.414;11.084;2023-03-17T02:06:11;5.60;70.00
42097;DHT22;27754;45.414;11.084;2023-03-17T02:08:38;5.60;70.20
42097;DHT22;27754;45.414;11.084;2023-03-17T02:11:06;5.50;70.50
42097;DHT22;27754;45.414;11.084;2023-03-17T02:13:33;5.60;69.80
42097;DHT22;27754;45.414;11.084;2023-03-17T02:16:00;5.70;68.60
42097;DHT22;27754;45.414;11.084;2023-03-17T02:18:27;5.70;68.20
42097;DHT22;27754;45.414;11.084;2023-03-17T02:21:59;5.70;68.20
42097;DHT22;27754;45.414;11.084;2023-03-17T02:24:04;5.60;68.50
42097;DHT22;27754;45.414;11.084;2023-03-17T02:26:35;5.60;68.60
42097;DHT22;27754;45.414;11.084;2023-03-17T02:29:03;5.60;68.40
42097;DHT22;27754;45.414;11.084;2023-03-17T02:31:32;5.50;68.60
42097;DHT22;27754;45.414;11.084;2023-03-17T02:34:00;5.60;68.50
42097;DHT22;27754;45.414;11.084;2023-03-17T02:36:28;5.60;68.70
42097;DHT22;27754;45.414;11.084;2023-03-17T02:38:55;5.50;68.90
42097;DHT22;27754;45.414;11.084;2023-03-17T02:41:23;5.50;68.60
42097;DHT22;27754;45.414;11.084;2023-03-17T02:43:50;5.40;68.30
42097;DHT22;27754;45.414;11.084;2023-03-17T02:46:19;5.40;68.10
42097;DHT22;27754;45.414;11.084;2023-03-17T02:48:46;5.50;67.50
42097;DHT22;27754;45.414;11.084;2023-03-17T02:51:13;5.50;67.40
42097;DHT22;27754;45.414;11.084;2023-03-17T02:53:40;5.50;67.30
42097;DHT22;27754;45.414;11.084;2023-03-17T02:56:07;5.50;67.90
42097;DHT22;27754;45.414;11.084;2023-03-17T02:58:35;5.50;67.40
42097;DHT22;27754;45.414;11.084;2023-03-17T03:01:02;5.50;67.30
42097;DHT22;27754;45.414;11.084;2023-03-17T03:03:29;5.50;66.40
42097;DHT22;27754;45.414;11.084;2023-03-17T03:05:57;5.50;66.50
42097;DHT22;27754;45.414;11.084;2023-03-17T03:08:25;5.40;66.30
42097;DHT22;27754;45.414;11.084;2023-03-17T03:10:52;5.40;66.40
42097;DHT22;27754;45.414;11.084;2023-03-17T03:13:20;5.40;66.40
42097;DHT22;27754;45.414;11.084;2023-03-17T03:15:47;5.40;66.60
42097;DHT22;27754;45.414;11.084;2023-03-17T03:18:14;5.50;66.00
42097;DHT22;27754;45.414;11.084;2023-03-17T03:20:43;5.50;66.10
42097;DHT22;27754;45.414;11.084;2023-03-17T03:23:10;5.40;66.40
42097;DHT22;27754;45.414;11.084;2023-03-17T03:25:38;5.40;66.80
42097;DHT22;27754;45.414;11.084;2023-03-17T03:28:06;5.40;66.60
42097;DHT22;27754;45.414;11.084;2023-03-17T03:30:35;5.40;66.20
42097;DHT22;27754;45.414;11.084;2023-03-17T03:33:03;5.40;65.50
42097;DHT22;27754;45.414;11.084;2023-03-17T03:35:30;5.50;65.30
42097;DHT22;27754;45.414;11.084;2023-03-17T03:37:58;5.40;65.00
42097;DHT22;27754;45.414;11.084;2023-03-17T03:40:25;5.40;64.70
42097;DHT22;27754;45.414;11.084;2023-03-17T03:42:52;5.40;65.40
42097;DHT22;27754;45.414;11.084;2023-03-17T03:45:19;5.40;65.40
42097;DHT22;27754;45.414;11.084;2023-03-17T03:47:46;5.40;65.00
42097;DHT22;27754;45.414;11.084;2023-03-17T03:50:13;5.40;64.80
42097;DHT22;27754;45.414;11.084;2023-03-17T03:52:40;5.40;64.90
42097;DHT22;27754;45.414;11.084;2023-03-17T03:55:08;5.50;65.00
42097;DHT22;27754;45.414;11.084;2023-03-17T03:57:35;5.50;65.20
42097;DHT22;27754;45.414;11.084;2023-03-17T04:00:03;5.50;65.40
42097;DHT22;27754;45.414;11.084;2023-03-17T04:02:37;5.50;65.30
42097;DHT22;27754;45.414;11.084;2023-03-17T04:05:05;5.40;65.30
42097;DHT22;27754;45.414;11.084;2023-03-17T04:07:33;5.40;65.40
42097;DHT22;27754;45.414;11.084;2023-03-17T04:10:00;5.40;65.40
42097;DHT22;27754;45.414;11.084;2023-03-17T04:12:27;5.40;65.40
42097;DHT22;27754;45.414;11.084;2023-03-17T04:14:54;5.40;65.30
42097;DHT22;27754;45.414;11.084;2023-03-17T04:17:21;5.40;65.30
42097;DHT22;27754;45.414;11.084;2023-03-17T04:19:48;5.40;65.60
42097;DHT22;27754;45.414;11.084;2023-03-17T04:22:15;5.40;65.70
42097;DHT22;27754;45.414;11.084;2023-03-17T04:24:42;5.40;65.40
42097;DHT22;27754;45.414;11.084;2023-03-17T04:27:09;5.30;65.60
42097;DHT22;27754;45.414;11.084;2023-03-17T04:29:36;5.30;65.20
42097;DHT22;27754;45.414;11.084;2023-03-17T04:32:03;5.30;64.10
42097;DHT22;27754;45.414;11.084;2023-03-17T04:34:30;5.30;64.00
42097;DHT22;27754;45.414;11.084;2023-03-17T04:36:57;5.30;63.60
42097;DHT22;27754;45.414;11.084;2023-03-17T04:39:24;5.30;63.90
42097;DHT22;27754;45.414;11.084;2023-03-17T04:41:51;5.30;64.20
42097;DHT22;27754;45.414;11.084;2023-03-17T04:44:18;5.30;64.50
42097;DHT22;27754;45.414;11.084;2023-03-17T04:46:45;5.30;64.30
42097;DHT22;27754;45.414;11.084;2023-03-17T04:49:12;5.30;64.80
42097;DHT22;27754;45.414;11.084;2023-03-17T04:51:39;5.30;64.60
42097;DHT22;27754;45.414;11.084;2023-03-17T04:54:07;5.40;64.30
42097;DHT22;27754;45.414;11.084;2023-03-17T04:56:34;5.30;64.10
42097;DHT22;27754;45.414;11.084;2023-03-17T04:59:02;5.30;63.60
42097;DHT22;27754;45.414;11.084;2023-03-17T05:01:29;5.30;63.50
42097;DHT22;27754;45.414;11.084;2023-03-17T05:03:56;5.30;63.50
42097;DHT22;27754;45.414;11.084;2023-03-17T05:06:23;5.30;62.50
42097;DHT22;27754;45.414;11.084;2023-03-17T05:08:50;5.30;62.10
42097;DHT22;27754;45.414;11.084;2023-03-17T05:11:17;5.30;61.30
42097;DHT22;27754;45.414;11.084;2023-03-17T05:13:44;5.30;60.90
42097;DHT22;27754;45.414;11.084;2023-03-17T05:16:11;5.30;61.30
42097;DHT22;27754;45.414;11.084;2023-03-17T05:18:38;5.40;61.90
42097;DHT22;27754;45.414;11.084;2023-03-17T05:21:05;5.40;62.20
42097;DHT22;27754;45.414;11.084;2023-03-17T05:23:33;5.40;62.40
42097;DHT22;27754;45.414;11.084;2023-03-17T05:26:01;5.30;62.80
42097;DHT22;27754;45.414;11.084;2023-03-17T05:28:28;5.40;62.30
42097;DHT22;27754;45.414;11.084;2023-03-17T05:30:55;5.40;61.70
42097;DHT22;27754;45.414;11.084;2023-03-17T05:33:22;5.40;62.30
42097;DHT22;27754;45.414;11.084;2023-03-17T05:35:49;5.40;61.90
42097;DHT22;27754;45.414;11.084;2023-03-17T05:38:17;5.40;61.50
42097;DHT22;27754;45.414;11.084;2023-03-17T05:40:44;5.40;61.60
42097;DHT22;27754;45.414;11.084;2023-03-17T05:43:11;5.30;61.80
42097;DHT22;27754;45.414;11.084;2023-03-17T05:45:38;5.40;61.90
42097;DHT22;27754;45.414;11.084;2023-03-17T05:48:05;5.50;62.20
42097;DHT22;27754;45.414;11.084;2023-03-17T05:50:33;5.50;62.70
42097;DHT22;27754;45.414;11.084;2023-03-17T05:53:00;5.50;63.40
42097;DHT22;27754;45.414;11.084;2023-03-17T05:55:27;5.60;63.50
42097;DHT22;27754;45.414;11.084;2023-03-17T05:57:54;5.70;63.60
42097;DHT22;27754;45.414;11.084;2023-03-17T06:00:21;5.90;63.70
42097;DHT22;27754;45.414;11.084;2023-03-17T06:02:48;6.00;63.90
42097;DHT22;27754;45.414;11.084;2023-03-17T06:05:15;6.10;64.00
42097;DHT22;27754;45.414;11.084;2023-03-17T06:07:42;6.20;63.80
42097;DHT22;27754;45.414;11.084;2023-03-17T06:10:21;6.40;64.10
42097;DHT22;27754;45.414;11.084;2023-03-17T06:12:48;6.50;64.00
42097;DHT22;27754;45.414;11.084;2023-03-17T06:15:15;6.80;63.80
42097;DHT22;27754;45.414;11.084;2023-03-17T06:17:42;6.90;63.10
42097;DHT22;27754;45.414;11.084;2023-03-17T06:20:10;7.10;62.50
42097;DHT22;27754;45.414;11.084;2023-03-17T06:22:38;7.20;62.10
42097;DHT22;27754;45.414;11.084;2023-03-17T06:25:17;7.30;61.70
42097;DHT22;27754;45.414;11.084;2023-03-17T06:27:44;7.40;60.50
42097;DHT22;27754;45.414;11.084;2023-03-17T06:30:12;7.50;60.00
42097;DHT22;27754;45.414;11.084;2023-03-17T06:32:39;7.60;59.40
42097;DHT22;27754;45.414;11.084;2023-03-17T06:35:06;7.80;60.10
42097;DHT22;27754;45.414;11.084;2023-03-17T06:37:34;7.80;58.00
42097;DHT22;27754;45.414;11.084;2023-03-17T06:40:02;7.80;57.60
42097;DHT22;27754;45.414;11.084;2023-03-17T06:42:31;7.90;57.90
42097;DHT22;27754;45.414;11.084;2023-03-17T06:44:58;7.90;57.60
42097;DHT22;27754;45.414;11.084;2023-03-17T06:47:25;8.10;56.40
42097;DHT22;27754;45.414;11.084;2023-03-17T06:49:52;8.10;56.30
42097;DHT22;27754;45.414;11.084;2023-03-17T06:52:19;8.10;56.60
42097;DHT22;27754;45.414;11.084;2023-03-17T06:54:46;8.10;56.80
42097;DHT22;27754;45.414;11.084;2023-03-17T06:57:13;8.30;58.20
42097;DHT22;27754;45.414;11.084;2023-03-17T06:59:40;8.30;56.70
42097;DHT22;27754;45.414;11.084;2023-03-17T07:02:09;8.40;57.20
42097;DHT22;27754;45.414;11.084;2023-03-17T07:04:37;8.40;57.00
42097;DHT22;27754;45.414;11.084;2023-03-17T07:07:04;8.50;57.20
42097;DHT22;27754;45.414;11.084;2023-03-17T07:09:32;8.70;57.40
42097;DHT22;27754;45.414;11.084;2023-03-17T07:12:01;8.90;57.50
42097;DHT22;27754;45.414;11.084;2023-03-17T07:14:35;9.10;57.30
42097;DHT22;27754;45.414;11.084;2023-03-17T07:17:03;9.30;57.40
42097;DHT22;27754;45.414;11.084;2023-03-17T07:19:31;9.40;57.40
42097;DHT22;27754;45.414;11.084;2023-03-17T07:21:58;9.70;57.70
42097;DHT22;27754;45.414;11.084;2023-03-17T07:24:25;9.80;57.10
42097;DHT22;27754;45.414;11.084;2023-03-17T07:26:52;9.90;56.90
42097;DHT22;27754;45.414;11.084;2023-03-17T07:29:19;10.00;56.20
42097;DHT22;27754;45.414;11.084;2023-03-17T07:31:48;10.00;55.80
42097;DHT22;27754;45.414;11.084;2023-03-17T07:34:16;10.00;56.20
42097;DHT22;27754;45.414;11.084;2023-03-17T07:36:43;10.10;56.90
42097;DHT22;27754;45.414;11.084;2023-03-17T07:39:10;10.30;57.20
42097;DHT22;27754;45.414;11.084;2023-03-17T07:41:38;10.30;56.90
42097;DHT22;27754;45.414;11.084;2023-03-17T07:44:09;10.40;56.60
42097;DHT22;27754;45.414;11.084;2023-03-17T07:46:37;10.70;57.20
42097;DHT22;27754;45.414;11.084;2023-03-17T07:49:04;10.80;57.50
42097;DHT22;27754;45.414;11.084;2023-03-17T07:51:32;11.00;57.20
42097;DHT22;27754;45.414;11.084;2023-03-17T07:53:59;11.20;55.70
42097;DHT22;27754;45.414;11.084;2023-03-17T07:56:30;11.30;55.90
42097;DHT22;27754;45.414;11.084;2023-03-17T07:58:58;11.30;54.30
42097;DHT22;27754;45.414;11.084;2023-03-17T08:01:26;11.50;53.70
42097;DHT22;27754;45.414;11.084;2023-03-17T08:03:54;11.50;52.00
42097;DHT22;27754;45.414;11.084;2023-03-17T08:06:22;11.60;53.00
42097;DHT22;27754;45.414;11.084;2023-03-17T08:08:53;11.60;51.10
42097;DHT22;27754;45.414;11.084;2023-03-17T08:11:21;11.70;49.60
42097;DHT22;27754;45.414;11.084;2023-03-17T08:13:49;11.70;48.40
42097;DHT22;27754;45.414;11.084;2023-03-17T08:16:16;11.90;47.50
42097;DHT22;27754;45.414;11.084;2023-03-17T08:18:43;11.90;46.70
42097;DHT22;27754;45.414;11.084;2023-03-17T08:21:10;12.10;46.90
42097;DHT22;27754;45.414;11.084;2023-03-17T08:23:38;12.30;46.70
42097;DHT22;27754;45.414;11.084;2023-03-17T08:26:05;12.40;45.50
42097;DHT22;27754;45.414;11.084;2023-03-17T08:28:32;12.50;49.90
42097;DHT22;27754;45.414;11.084;2023-03-17T08:31:10;12.40;49.30
42097;DHT22;27754;45.414;11.084;2023-03-17T08:33:40;12.40;47.80
42097;DHT22;27754;45.414;11.084;2023-03-17T08:36:09;12.40;44.40
42097;DHT22;27754;45.414;11.084;2023-03-17T08:38:37;12.40;42.90
42097;DHT22;27754;45.414;11.084;2023-03-17T08:41:08;12.40;42.10
42097;DHT22;27754;45.414;11.084;2023-03-17T08:43:35;12.40;41.50
42097;DHT22;27754;45.414;11.084;2023-03-17T08:46:06;12.50;43.40
42097;DHT22;27754;45.414;11.084;2023-03-17T08:48:35;12.60;43.60
42097;DHT22;27754;45.414;11.084;2023-03-17T08:51:03;12.70;43.50
42097;DHT22;27754;45.414;11.084;2023-03-17T08:53:31;12.70;44.80
42097;DHT22;27754;45.414;11.084;2023-03-17T08:56:01;12.70;44.70
42097;DHT22;27754;45.414;11.084;2023-03-17T08:58:30;12.80;45.20
42097;DHT22;27754;45.414;11.084;2023-03-17T09:01:00;12.80;45.50
42097;DHT22;27754;45.414;11.084;2023-03-17T09:03:28;12.90;45.30
42097;DHT22;27754;45.414;11.084;2023-03-17T09:05:56;12.90;44.90
42097;DHT22;27754;45.414;11.084;2023-03-17T09:08:24;12.90;44.90
42097;DHT22;27754;45.414;11.084;2023-03-17T09:10:52;12.60;44.50
42097;DHT22;27754;45.414;11.084;2023-03-17T09:13:20;12.70;45.20
42097;DHT22;27754;45.414;11.084;2023-03-17T09:15:48;12.70;45.00
42097;DHT22;27754;45.414;11.084;2023-03-17T09:18:18;12.60;47.10
42097;DHT22;27754;45.414;11.084;2023-03-17T09:20:47;12.70;46.30
42097;DHT22;27754;45.414;11.084;2023-03-17T09:23:14;12.80;47.90
42097;DHT22;27754;45.414;11.084;2023-03-17T09:25:42;12.90;47.90
42097;DHT22;27754;45.414;11.084;2023-03-17T09:28:10;12.90;46.10
42097;DHT22;27754;45.414;11.084;2023-03-17T09:30:41;12.90;45.70
42097;DHT22;27754;45.414;11.084;2023-03-17T09:33:12;12.90;45.20
42097;DHT22;27754;45.414;11.084;2023-03-17T09:35:39;13.00;46.90
42097;DHT22;27754;45.414;11.084;2023-03-17T09:38:08;13.10;46.60
42097;DHT22;27754;45.414;11.084;2023-03-17T09:40:46;13.00;45.70
42097;DHT22;27754;45.414;11.084;2023-03-17T09:49:02;13.00;43.80
42097;DHT22;27754;45.414;11.084;2023-03-17T09:51:34;13.00;46.40
42097;DHT22;27754;45.414;11.084;2023-03-17T09:56:33;12.90;43.60
42097;DHT22;27754;45.414;11.084;2023-03-17T09:59:16;12.90;43.30
42097;DHT22;27754;45.414;11.084;2023-03-17T10:01:50;13.00;44.70
42097;DHT22;27754;45.414;11.084;2023-03-17T10:04:18;13.00;44.70
42097;DHT22;27754;45.414;11.084;2023-03-17T10:06:45;13.20;44.00
42097;DHT22;27754;45.414;11.084;2023-03-17T10:11:47;13.30;42.90
42097;DHT22;27754;45.414;11.084;2023-03-17T10:17:23;13.30;44.10
42097;DHT22;27754;45.414;11.084;2023-03-17T10:25:08;13.10;41.80
42097;DHT22;27754;45.414;11.084;2023-03-17T10:27:39;13.00;42.80
42097;DHT22;27754;45.414;11.084;2023-03-17T10:30:16;12.90;42.80
42097;DHT22;27754;45.414;11.084;2023-03-17T10:32:43;13.20;44.00
42097;DHT22;27754;45.414;11.084;2023-03-17T10:35:12;13.20;42.50
42097;DHT22;27754;45.414;11.084;2023-03-17T10:37:41;13.20;42.40
42097;DHT22;27754;45.414;11.084;2023-03-17T10:40:27;13.10;42.00
42097;DHT22;27754;45.414;11.084;2023-03-17T10:43:05;13.10;43.70
42097;DHT22;27754;45.414;11.084;2023-03-17T10:45:37;13.20;44.20
42097;DHT22;27754;45.414;11.084;2023-03-17T10:48:09;13.40;44.10
42097;DHT22;27754;45.414;11.084;2023-03-17T10:50:42;13.50;43.80
42097;DHT22;27754;45.414;11.084;2023-03-17T10:53:23;13.50;42.90
42097;DHT22;27754;45.414;11.084;2023-03-17T10:55:59;13.50;44.70
42097;DHT22;27754;45.414;11.084;2023-03-17T10:58:43;13.40;44.70
42097;DHT22;27754;45.414;11.084;2023-03-17T11:01:38;13.60;44.40
42097;DHT22;27754;45.414;11.084;2023-03-17T11:04:34;13.70;44.10
42097;DHT22;27754;45.414;11.084;2023-03-17T11:07:16;13.60;42.90
42097;DHT22;27754;45.414;11.084;2023-03-17T11:09:50;13.60;42.70
42097;DHT22;27754;45.414;11.084;2023-03-17T11:12:28;13.80;43.00
42097;DHT22;27754;45.414;11.084;2023-03-17T11:15:01;13.80;42.90
42097;DHT22;27754;45.414;11.084;2023-03-17T11:17:57;13.90;42.80
42097;DHT22;27754;45.414;11.084;2023-03-17T11:20:43;13.90;43.20
42097;DHT22;27754;45.414;11.084;2023-03-17T11:25:57;13.90;43.60
42097;DHT22;27754;45.414;11.084;2023-03-17T11:28:32;13.80;43.30
42097;DHT22;27754;45.414;11.084;2023-03-17T11:31:08;13.80;42.20
42097;DHT22;27754;45.414;11.084;2023-03-17T11:33:59;13.80;44.80
42097;DHT22;27754;45.414;11.084;2023-03-17T11:36:56;13.90;44.80
42097;DHT22;27754;45.414;11.084;2023-03-17T11:39:29;13.90;43.10
42097;DHT22;27754;45.414;11.084;2023-03-17T11:42:12;13.90;44.40
42097;DHT22;27754;45.414;11.084;2023-03-17T11:56:13;14.20;43.00
42097;DHT22;27754;45.414;11.084;2023-03-17T11:58:45;14.10;43.40
42097;DHT22;27754;45.414;11.084;2023-03-17T12:01:18;14.20;44.00
42097;DHT22;27754;45.414;11.084;2023-03-17T12:06:27;14.40;43.10
42097;DHT22;27754;45.414;11.084;2023-03-17T12:09:08;14.30;42.40
42097;DHT22;27754;45.414;11.084;2023-03-17T12:11:43;14.30;42.60
42097;DHT22;27754;45.414;11.084;2023-03-17T12:14:34;14.20;42.40
42097;DHT22;27754;45.414;11.084;2023-03-17T12:17:24;14.10;42.40
42097;DHT22;27754;45.414;11.084;2023-03-17T12:20:12;13.90;42.20
42097;DHT22;27754;45.414;11.084;2023-03-17T12:22:46;14.10;45.40
42097;DHT22;27754;45.414;11.084;2023-03-17T12:26:00;14.10;43.10
42097;DHT22;27754;45.414;11.084;2023-03-17T12:28:45;14.20;42.60
42097;DHT22;27754;45.414;11.084;2023-03-17T12:31:20;14.40;43.20
42097;DHT22;27754;45.414;11.084;2023-03-17T12:36:20;14.50;42.10
42097;DHT22;27754;45.414;11.084;2023-03-17T12:38:55;14.60;42.30
42097;DHT22;27754;45.414;11.084;2023-03-17T12:41:41;14.50;41.70
42097;DHT22;27754;45.414;11.084;2023-03-17T12:55:38;14.80;41.80
42097;DHT22;27754;45.414;11.084;2023-03-17T13:04:00;15.00;41.80
42097;DHT22;27754;45.414;11.084;2023-03-17T13:11:59;15.10;41.70
42097;DHT22;27754;45.414;11.084;2023-03-17T13:14:39;15.30;41.40
42097;DHT22;27754;45.414;11.084;2023-03-17T13:25:33;15.10;39.70
42097;DHT22;27754;45.414;11.084;2023-03-17T13:33:26;15.10;40.30
42097;DHT22;27754;45.414;11.084;2023-03-17T13:44:33;15.40;40.40
42097;DHT22;27754;45.414;11.084;2023-03-17T13:47:22;15.40;40.50
42097;DHT22;27754;45.414;11.084;2023-03-17T13:49:52;15.40;39.80
42097;DHT22;27754;45.414;11.084;2023-03-17T13:52:30;15.50;40.30
42097;DHT22;27754;45.414;11.084;2023-03-17T13:57:54;15.60;39.60
42097;DHT22;27754;45.414;11.084;2023-03-17T14:00:46;15.50;40.20
42097;DHT22;27754;45.414;11.084;2023-03-17T14:03:33;15.60;39.00
42097;DHT22;27754;45.414;11.084;2023-03-17T14:06:06;15.60;40.90
42097;DHT22;27754;45.414;11.084;2023-03-17T14:08:35;15.60;39.60
42097;DHT22;27754;45.414;11.084;2023-03-17T14:11:12;15.50;39.50
42097;DHT22;27754;45.414;11.084;2023-03-17T14:19:21;15.70;38.80
42097;DHT22;27754;45.414;11.084;2023-03-17T14:21:48;15.60;39.30
42097;DHT22;27754;45.414;11.084;2023-03-17T14:24:22;15.50;39.40
42097;DHT22;27754;45.414;11.084;2023-03-17T14:26:50;15.50;39.40
42097;DHT22;27754;45.414;11.084;2023-03-17T14:29:29;15.60;39.90
42097;DHT22;27754;45.414;11.084;2023-03-17T14:32:15;15.60;40.70
42097;DHT22;27754;45.414;11.084;2023-03-17T14:34:43;15.60;41.20
42097;DHT22;27754;45.414;11.084;2023-03-17T14:37:11;15.70;41.30
42097;DHT22;27754;45.414;11.084;2023-03-17T14:39:50;15.70;40.90
42097;DHT22;27754;45.414;11.084;2023-03-17T14:42:26;15.60;40.70
42097;DHT22;27754;45.414;11.084;2023-03-17T14:45:02;15.60;40.40
42097;DHT22;27754;45.414;11.084;2023-03-17T14:47:36;15.60;41.00
42097;DHT22;27754;45.414;11.084;2023-03-17T14:50:15;15.50;42.20
42097;DHT22;27754;45.414;11.084;2023-03-17T14:52:43;15.60;41.90
42097;DHT22;27754;45.414;11.084;2023-03-17T14:55:13;15.60;41.30
42097;DHT22;27754;45.414;11.084;2023-03-17T14:57:41;15.50;40.70
42097;DHT22;27754;45.414;11.084;2023-03-17T15:00:29;15.40;40.80
42097;DHT22;27754;45.414;11.084;2023-03-17T15:02:59;15.30;41.10
42097;DHT22;27754;45.414;11.084;2023-03-17T15:05:40;15.30;40.90
42097;DHT22;27754;45.414;11.084;2023-03-17T15:11:00;15.30;41.60
42097;DHT22;27754;45.414;11.084;2023-03-17T15:13:31;15.30;41.60
42097;DHT22;27754;45.414;11.084;2023-03-17T15:16:37;15.30;41.40
42097;DHT22;27754;45.414;11.084;2023-03-17T15:19:18;15.30;41.00
42097;DHT22;27754;45.414;11.084;2023-03-17T15:21:47;15.30;41.70
42097;DHT22;27754;45.414;11.084;2023-03-17T15:24:42;15.30;41.60
42097;DHT22;27754;45.414;11.084;2023-03-17T15:29:39;15.20;42.00
42097;DHT22;27754;45.414;11.084;2023-03-17T15:32:12;15.20;42.00
42097;DHT22;27754;45.414;11.084;2023-03-17T15:34:41;15.10;42.20
42097;DHT22;27754;45.414;11.084;2023-03-17T15:37:14;15.00;42.40
42097;DHT22;27754;45.414;11.084;2023-03-17T15:39:42;14.90;43.30
42097;DHT22;27754;45.414;11.084;2023-03-17T15:42:09;14.90;43.10
42097;DHT22;27754;45.414;11.084;2023-03-17T15:44:36;14.90;43.10
42097;DHT22;27754;45.414;11.084;2023-03-17T15:47:03;14.80;43.40
42097;DHT22;27754;45.414;11.084;2023-03-17T15:49:30;14.80;43.90
42097;DHT22;27754;45.414;11.084;2023-03-17T15:51:57;14.80;43.30
42097;DHT22;27754;45.414;11.084;2023-03-17T15:54:24;14.70;44.50
42097;DHT22;27754;45.414;11.084;2023-03-17T15:56:51;14.70;44.50
42097;DHT22;27754;45.414;11.084;2023-03-17T15:59:18;14.60;44.40
42097;DHT22;27754;45.414;11.084;2023-03-17T16:01:45;14.60;44.70
42097;DHT22;27754;45.414;11.084;2023-03-17T16:04:12;14.50;45.00
42097;DHT22;27754;45.414;11.084;2023-03-17T16:06:39;14.50;45.20
42097;DHT22;27754;45.414;11.084;2023-03-17T16:09:14;14.50;45.00
42097;DHT22;27754;45.414;11.084;2023-03-17T16:11:41;14.40;45.20
42097;DHT22;27754;45.414;11.084;2023-03-17T16:14:09;14.40;45.00
42097;DHT22;27754;45.414;11.084;2023-03-17T16:16:42;14.40;45.30
42097;DHT22;27754;45.414;11.084;2023-03-17T16:19:17;14.30;45.60
42097;DHT22;27754;45.414;11.084;2023-03-17T16:21:46;14.30;45.70
42097;DHT22;27754;45.414;11.084;2023-03-17T16:24:20;14.10;44.90
42097;DHT22;27754;45.414;11.084;2023-03-17T16:26:49;14.10;44.60
42097;DHT22;27754;45.414;11.084;2023-03-17T16:29:17;14.00;44.70
42097;DHT22;27754;45.414;11.084;2023-03-17T16:31:47;14.00;44.70
42097;DHT22;27754;45.414;11.084;2023-03-17T16:34:22;13.90;45.20
42097;DHT22;27754;45.414;11.084;2023-03-17T16:36:49;13.90;45.00
42097;DHT22;27754;45.414;11.084;2023-03-17T16:39:21;13.90;45.20
42097;DHT22;27754;45.414;11.084;2023-03-17T16:41:49;13.80;45.50
42097;DHT22;27754;45.414;11.084;2023-03-17T16:44:17;13.80;46.00
42097;DHT22;27754;45.414;11.084;2023-03-17T16:46:45;13.70;46.50
42097;DHT22;27754;45.414;11.084;2023-03-17T16:49:14;13.60;46.70
42097;DHT22;27754;45.414;11.084;2023-03-17T16:51:42;13.60;46.50
42097;DHT22;27754;45.414;11.084;2023-03-17T16:54:09;13.50;46.30
42097;DHT22;27754;45.414;11.084;2023-03-17T16:56:38;13.40;46.50
42097;DHT22;27754;45.414;11.084;2023-03-17T16:59:12;13.40;46.50
42097;DHT22;27754;45.414;11.084;2023-03-17T17:01:41;13.30;46.40
42097;DHT22;27754;45.414;11.084;2023-03-17T17:04:08;13.30;46.60
42097;DHT22;27754;45.414;11.084;2023-03-17T17:06:36;13.10;46.70
42097;DHT22;27754;45.414;11.084;2023-03-17T17:09:03;13.10;47.00
42097;DHT22;27754;45.414;11.084;2023-03-17T17:11:30;12.90;47.30
42097;DHT22;27754;45.414;11.084;2023-03-17T17:13:57;12.90;47.60
42097;DHT22;27754;45.414;11.084;2023-03-17T17:16:27;12.80;47.70
42097;DHT22;27754;45.414;11.084;2023-03-17T17:18:54;12.80;47.70
42097;DHT22;27754;45.414;11.084;2023-03-17T17:21:22;12.70;47.80
42097;DHT22;27754;45.414;11.084;2023-03-17T17:23:48;12.60;48.00
42097;DHT22;27754;45.414;11.084;2023-03-17T17:26:18;12.50;48.00